Time;durP1;ratioP1;P1;durP2;ratioP2;P2;SDS_P1;SDS_P2;PMS_P1;PMS_P2;Temp;Humidity;BMP_temperature;BMP_pressure;BME280_temperature;BME280_humidity;BME280_pressure;Samples;Min_cycle;Max_cycle;Signal;HPM_P1;HPM_P2
2023/03/12 00:00:09;;;;;;;;;;;1.70;93.80;;;;;;4791105;29;19954;-86
2023/03/12 00:02:37;;;;;;;;;;;1.70;93.80;;;;;;4773622;30;19929;-85
2023/03/12 00:05:05;;;;;;;;;;;1.70;93.80;;;;;;4783767;29;19925;-85
2023/03/12 00:07:32;;;;;;;;;;;1.70;93.80;;;;;;4790792;29;20008;-85
2023/03/12 00:09:59;;;;;;;;;;;1.80;93.80;;;;;;4791026;29;19925;-85
2023/03/12 00:12:26;;;;;;;;;;;1.90;93.80;;;;;;4790732;29;19972;-86
2023/03/12 00:14:56;;;;;;;;;;;1.90;93.70;;;;;;4805005;29;19925;-85
2023/03/12 00:17:24;;;;;;;;;;;1.90;93.70;;;;;;4775739;29;19936;-85
2023/03/12 00:19:52;;;;;;;;;;;1.90;93.70;;;;;;4790562;29;19953;-85
2023/03/12 00:22:21;;;;;;;;;;;1.90;93.70;;;;;;4790655;29;20397;-85
2023/03/12 00:24:49;;;;;;;;;;;1.90;93.70;;;;;;4805397;29;20021;-85
2023/03/12 00:27:16;;;;;;;;;;;2.00;93.80;;;;;;4790577;29;20344;-85
2023/03/12 00:29:43;;;;;;;;;;;2.00;93.70;;;;;;4805967;29;20358;-87
2023/03/12 00:32:10;;;;;;;;;;;2.00;93.80;;;;;;4776046;29;19925;-87
2023/03/12 00:34:37;;;;;;;;;;;2.00;93.70;;;;;;4790561;29;20012;-87
2023/03/12 00:37:05;;;;;;;;;;;2.00;93.70;;;;;;4790619;29;20019;-87
2023/03/12 00:39:32;;;;;;;;;;;2.00;93.70;;;;;;4790845;29;19933;-87
2023/03/12 00:41:59;;;;;;;;;;;2.00;93.70;;;;;;4775341;29;19982;-85
2023/03/12 00:44:26;;;;;;;;;;;2.10;93.70;;;;;;4790235;29;19925;-85
2023/03/12 00:46:53;;;;;;;;;;;2.10;93.70;;;;;;4784308;29;19925;-86
2023/03/12 00:49:20;;;;;;;;;;;2.10;93.70;;;;;;4790608;29;20027;-85
2023/03/12 00:51:47;;;;;;;;;;;2.10;93.70;;;;;;4790624;29;19967;-86
2023/03/12 00:54:14;;;;;;;;;;;2.10;93.60;;;;;;4793591;29;19925;-86
2023/03/12 00:56:42;;;;;;;;;;;2.20;93.60;;;;;;4760926;29;19929;-85
2023/03/12 00:59:09;;;;;;;;;;;2.20;93.60;;;;;;4775241;29;20459;-86
2023/03/12 01:01:36;;;;;;;;;;;2.20;93.50;;;;;;4800494;29;19947;-85
2023/03/12 01:04:03;;;;;;;;;;;2.20;93.70;;;;;;4808262;29;19925;-86
2023/03/12 01:06:30;;;;;;;;;;;2.30;93.50;;;;;;4793849;29;19978;-86
2023/03/12 01:08:57;;;;;;;;;;;2.30;93.50;;;;;;4793884;29;19983;-86
2023/03/12 01:11:24;;;;;;;;;;;2.30;93.50;;;;;;4793708;29;19947;-86
2023/03/12 01:13:51;;;;;;;;;;;2.30;93.40;;;;;;4793731;29;19972;-86
2023/03/12 01:16:18;;;;;;;;;;;2.40;93.40;;;;;;4808440;29;20386;-86
2023/03/12 01:18:45;;;;;;;;;;;2.40;93.40;;;;;;4793893;29;19942;-86
2023/03/12 01:21:12;;;;;;;;;;;2.40;93.40;;;;;;4778826;29;20306;-86
2023/03/12 01:23:39;;;;;;;;;;;2.40;93.50;;;;;;4793698;29;19932;-86
2023/03/12 01:26:06;;;;;;;;;;;2.30;93.50;;;;;;4778702;29;19924;-86
2023/03/12 01:28:33;;;;;;;;;;;2.30;93.50;;;;;;4793622;29;19972;-87
2023/03/12 01:31:08;;;;;;;;;;;2.30;93.50;;;;;;4764527;29;19932;-87
2023/03/12 01:33:35;;;;;;;;;;;2.30;93.60;;;;;;4807431;29;20464;-86
2023/03/12 01:36:02;;;;;;;;;;;2.30;93.60;;;;;;4790725;29;19998;-86
2023/03/12 01:38:29;;;;;;;;;;;2.20;93.70;;;;;;4805930;29;20089;-86
2023/03/12 01:40:56;;;;;;;;;;;2.20;93.70;;;;;;4763623;29;19925;-86
2023/03/12 01:43:31;;;;;;;;;;;2.20;93.70;;;;;;4793246;29;19929;-86
2023/03/12 01:46:02;;;;;;;;;;;2.20;93.70;;;;;;4790361;30;20024;-86
2023/03/12 01:48:36;;;;;;;;;;;2.20;94.00;;;;;;4804609;29;19925;-86
2023/03/12 01:51:03;;;;;;;;;;;2.20;93.80;;;;;;4793077;29;19925;-86
2023/03/12 01:53:30;;;;;;;;;;;2.10;93.80;;;;;;4800036;29;20015;-86
2023/03/12 01:55:59;;;;;;;;;;;2.10;93.80;;;;;;4799621;29;19929;-86
2023/03/12 01:58:35;;;;;;;;;;;2.10;93.80;;;;;;4792457;29;20386;-86
2023/03/12 02:01:02;;;;;;;;;;;2.00;93.90;;;;;;4762420;30;19933;-86
2023/03/12 02:03:30;;;;;;;;;;;2.00;93.90;;;;;;4759317;30;19925;-86
2023/03/12 02:06:01;;;;;;;;;;;2.00;93.90;;;;;;4774020;30;19926;-86
2023/03/12 02:08:28;;;;;;;;;;;2.00;93.90;;;;;;4759286;30;19925;-86
2023/03/12 02:10:55;;;;;;;;;;;2.00;94.00;;;;;;4759107;30;19929;-86
2023/03/12 02:13:22;;;;;;;;;;;2.00;93.90;;;;;;4773658;30;20134;-86
2023/03/12 02:15:49;;;;;;;;;;;2.00;94.00;;;;;;4773290;30;20509;-86
2023/03/12 02:18:17;;;;;;;;;;;2.00;93.90;;;;;;4773710;30;19926;-85
2023/03/12 02:21:07;;;;;;;;;;;2.00;93.90;;;;;;4773854;30;19929;-86
2023/03/12 02:23:37;;;;;;;;;;;2.10;93.90;;;;;;4756232;30;20353;-86
2023/03/12 02:26:05;;;;;;;;;;;2.10;93.90;;;;;;4767560;30;20016;-86
2023/03/12 02:28:41;;;;;;;;;;;2.10;93.90;;;;;;4770843;29;19925;-85
2023/03/12 02:31:11;;;;;;;;;;;2.10;93.90;;;;;;4792572;29;19925;-86
2023/03/12 02:33:38;;;;;;;;;;;2.10;93.90;;;;;;4792389;29;20008;-86
2023/03/12 02:36:06;;;;;;;;;;;2.10;93.90;;;;;;4792172;29;20443;-86
2023/03/12 02:38:36;;;;;;;;;;;2.10;93.90;;;;;;4792632;29;20013;-85
2023/03/12 02:41:08;;;;;;;;;;;2.20;93.90;;;;;;4807300;29;20398;-86
2023/03/12 02:43:37;;;;;;;;;;;2.20;93.90;;;;;;4794995;29;20365;-86
2023/03/12 02:46:05;;;;;;;;;;;2.20;93.90;;;;;;4780658;29;19968;-86
2023/03/12 02:48:32;;;;;;;;;;;2.20;93.90;;;;;;4810308;29;19924;-86
2023/03/12 02:50:59;;;;;;;;;;;2.30;93.90;;;;;;4800790;29;20019;-86
2023/03/12 02:53:26;;;;;;;;;;;2.30;93.90;;;;;;4792065;29;19932;-86
2023/03/12 02:55:54;;;;;;;;;;;2.30;93.90;;;;;;4777259;29;19925;-86
2023/03/12 02:58:21;;;;;;;;;;;2.30;93.90;;;;;;4788794;29;19928;-86
2023/03/12 03:00:49;;;;;;;;;;;2.40;93.90;;;;;;4792903;29;19925;-86
2023/03/12 03:03:16;;;;;;;;;;;2.30;93.80;;;;;;4796988;29;20359;-86
2023/03/12 03:05:43;;;;;;;;;;;2.40;93.90;;;;;;4802341;29;19929;-86
2023/03/12 03:08:10;;;;;;;;;;;2.40;93.90;;;;;;4791883;29;19925;-86
2023/03/12 03:10:37;;;;;;;;;;;2.40;93.90;;;;;;4791989;29;19925;-86
2023/03/12 03:13:04;;;;;;;;;;;2.50;93.90;;;;;;4792014;29;19925;-86
2023/03/12 03:15:31;;;;;;;;;;;2.50;93.80;;;;;;4792144;29;19955;-86
2023/03/12 03:18:02;;;;;;;;;;;2.50;93.80;;;;;;4791738;29;20439;-87
2023/03/12 03:20:31;;;;;;;;;;;2.50;93.80;;;;;;4791789;29;19988;-86
2023/03/12 03:22:57;;;;;;;;;;;2.50;93.80;;;;;;4791542;29;19929;-86
2023/03/12 03:25:25;;;;;;;;;;;2.50;93.80;;;;;;4806549;29;20271;-87
2023/03/12 03:27:52;;;;;;;;;;;2.50;93.80;;;;;;4791677;29;20466;-86
2023/03/12 03:30:20;;;;;;;;;;;2.60;93.80;;;;;;4791529;29;20450;-86
2023/03/12 03:32:49;;;;;;;;;;;2.50;93.70;;;;;;4791455;29;19986;-86
2023/03/12 03:35:20;;;;;;;;;;;2.60;93.80;;;;;;4791794;29;19925;-86
2023/03/12 03:37:48;;;;;;;;;;;2.60;93.80;;;;;;4791371;29;19931;-86
2023/03/12 03:40:15;;;;;;;;;;;2.60;93.70;;;;;;4791527;29;20019;-86
2023/03/12 03:42:42;;;;;;;;;;;2.60;93.70;;;;;;4806020;29;19932;-87
2023/03/12 03:45:09;;;;;;;;;;;2.60;93.70;;;;;;4791254;29;20021;-87
2023/03/12 03:47:41;;;;;;;;;;;2.60;93.70;;;;;;4791430;29;19925;-86
2023/03/12 03:50:11;;;;;;;;;;;2.60;93.60;;;;;;4789510;29;19929;-87
2023/03/12 03:52:38;;;;;;;;;;;2.60;93.60;;;;;;4806193;29;19976;-86
2023/03/12 03:55:06;;;;;;;;;;;2.60;93.60;;;;;;4781391;29;19925;-86
2023/03/12 03:57:33;;;;;;;;;;;2.60;93.60;;;;;;4799299;29;19924;-87
2023/03/12 04:00:00;;;;;;;;;;;2.60;93.60;;;;;;4794930;29;19931;-86
2023/03/12 04:02:39;;;;;;;;;;;2.60;93.90;;;;;;4803217;29;19972;-86
2023/03/12 04:05:10;;;;;;;;;;;2.60;93.70;;;;;;4806022;29;19925;-87
2023/03/12 04:07:37;;;;;;;;;;;2.60;93.70;;;;;;4791300;29;20031;-86
2023/03/12 04:10:05;;;;;;;;;;;2.60;93.70;;;;;;4791287;29;19932;-87
2023/03/12 04:12:33;;;;;;;;;;;2.60;93.60;;;;;;4791016;29;19925;-87
2023/03/12 04:14:59;;;;;;;;;;;2.60;93.60;;;;;;4776164;29;19925;-87
2023/03/12 04:17:27;;;;;;;;;;;2.60;93.70;;;;;;4801892;29;20278;-86
2023/03/12 04:19:56;;;;;;;;;;;2.60;93.70;;;;;;4777568;29;19952;-87
2023/03/12 04:22:25;;;;;;;;;;;2.60;93.70;;;;;;4805502;29;19929;-86
2023/03/12 04:24:55;;;;;;;;;;;2.60;93.70;;;;;;4790591;29;20474;-87
2023/03/12 04:27:25;;;;;;;;;;;2.60;93.70;;;;;;4790610;29;19929;-87
2023/03/12 04:29:56;;;;;;;;;;;2.60;93.70;;;;;;4817799;29;19979;-87
2023/03/12 04:32:23;;;;;;;;;;;2.60;93.60;;;;;;4790725;29;19932;-87
2023/03/12 04:34:51;;;;;;;;;;;2.60;93.60;;;;;;4776185;29;20382;-86
2023/03/12 04:37:20;;;;;;;;;;;2.70;93.60;;;;;;4789799;29;19925;-86
2023/03/12 04:39:48;;;;;;;;;;;2.70;93.60;;;;;;4775836;29;20248;-86
2023/03/12 04:42:15;;;;;;;;;;;2.60;93.60;;;;;;4775550;29;20375;-87
2023/03/12 04:44:45;;;;;;;;;;;2.60;93.60;;;;;;4805100;29;19948;-87
2023/03/12 04:47:14;;;;;;;;;;;2.60;93.60;;;;;;4790479;29;19961;-87
2023/03/12 04:49:41;;;;;;;;;;;2.70;93.70;;;;;;4775944;29;20382;-86
2023/03/12 04:52:08;;;;;;;;;;;2.70;93.70;;;;;;4805763;29;19929;-87
2023/03/12 04:54:38;;;;;;;;;;;2.70;93.70;;;;;;4790790;29;19925;-86
2023/03/12 04:57:05;;;;;;;;;;;2.70;93.60;;;;;;4775599;29;19929;-87
2023/03/12 04:59:33;;;;;;;;;;;2.70;93.60;;;;;;4790256;29;20362;-87
2023/03/12 05:02:00;;;;;;;;;;;2.80;93.60;;;;;;4775774;29;19932;-87
2023/03/12 05:04:29;;;;;;;;;;;2.80;93.50;;;;;;4790509;29;19932;-87
2023/03/12 05:06:59;;;;;;;;;;;2.80;93.50;;;;;;4790322;29;19965;-87
2023/03/12 05:09:26;;;;;;;;;;;2.80;93.30;;;;;;4790766;29;19948;-87
2023/03/12 05:11:55;;;;;;;;;;;2.90;93.30;;;;;;4790108;29;19964;-87
2023/03/12 05:14:22;;;;;;;;;;;2.90;93.30;;;;;;4773154;29;19931;-86
2023/03/12 05:16:50;;;;;;;;;;;2.90;93.30;;;;;;4802215;29;20030;-87
2023/03/12 05:19:17;;;;;;;;;;;2.90;93.30;;;;;;4775586;29;20015;-87
2023/03/12 05:21:44;;;;;;;;;;;2.90;93.30;;;;;;4790378;29;19925;-87
2023/03/12 05:24:11;;;;;;;;;;;2.90;93.40;;;;;;4775282;29;20383;-86
2023/03/12 05:26:38;;;;;;;;;;;2.90;93.40;;;;;;4802943;29;19925;-87
2023/03/12 05:29:12;;;;;;;;;;;2.90;93.40;;;;;;4776498;29;19932;-87
2023/03/12 05:31:42;;;;;;;;;;;2.90;93.50;;;;;;4790578;29;19948;-87
2023/03/12 05:34:11;;;;;;;;;;;2.90;93.50;;;;;;4775509;29;20019;-88
2023/03/12 05:36:40;;;;;;;;;;;2.90;93.50;;;;;;4790373;29;19991;-87
2023/03/12 05:39:08;;;;;;;;;;;2.90;93.50;;;;;;4790214;29;19931;-87
2023/03/12 05:41:36;;;;;;;;;;;2.90;93.50;;;;;;4805101;29;20024;-87
2023/03/12 05:44:10;;;;;;;;;;;2.90;93.50;;;;;;4793477;29;19931;-87
2023/03/12 05:46:37;;;;;;;;;;;2.90;93.60;;;;;;4795631;29;19982;-87
2023/03/12 05:49:04;;;;;;;;;;;2.90;93.60;;;;;;4777420;29;20290;-87
2023/03/12 05:51:33;;;;;;;;;;;2.90;93.60;;;;;;4793292;29;19925;-87
2023/03/12 05:54:01;;;;;;;;;;;3.00;93.60;;;;;;4778531;29;19936;-87
2023/03/12 05:56:28;;;;;;;;;;;3.00;93.80;;;;;;4793422;29;19958;-88
2023/03/12 05:58:55;;;;;;;;;;;3.00;93.60;;;;;;4778543;29;19932;-87
2023/03/12 06:01:24;;;;;;;;;;;3.00;93.60;;;;;;4793436;29;19929;-87
2023/03/12 06:03:56;;;;;;;;;;;3.00;93.60;;;;;;4792943;29;19925;-87
2023/03/12 06:06:25;;;;;;;;;;;3.00;93.60;;;;;;4793409;29;19929;-87
2023/03/12 06:08:53;;;;;;;;;;;3.00;93.60;;;;;;4808631;29;19925;-87
2023/03/12 06:11:20;;;;;;;;;;;3.00;93.60;;;;;;4793164;29;20272;-87
2023/03/12 06:13:51;;;;;;;;;;;3.00;93.60;;;;;;4793069;29;20019;-87
2023/03/12 06:16:20;;;;;;;;;;;3.10;93.60;;;;;;4792975;29;19932;-87
2023/03/12 06:18:48;;;;;;;;;;;3.10;93.60;;;;;;4793206;29;19982;-87
2023/03/12 06:21:18;;;;;;;;;;;3.10;93.60;;;;;;4778170;29;20027;-86
2023/03/12 06:23:45;;;;;;;;;;;3.10;93.60;;;;;;4807906;29;20492;-87
2023/03/12 06:26:18;;;;;;;;;;;3.10;93.60;;;;;;4778618;29;19931;-87
2023/03/12 06:28:46;;;;;;;;;;;3.10;93.50;;;;;;4807801;29;19936;-87
2023/03/12 06:31:13;;;;;;;;;;;3.20;93.50;;;;;;4792835;29;19925;-87
2023/03/12 06:33:40;;;;;;;;;;;3.20;93.50;;;;;;4779908;29;19925;-87
2023/03/12 06:36:08;;;;;;;;;;;3.20;93.50;;;;;;4807758;29;19932;-87
2023/03/12 06:38:35;;;;;;;;;;;3.10;93.50;;;;;;4792431;29;19933;-87
2023/03/12 06:41:04;;;;;;;;;;;3.20;93.50;;;;;;4777559;29;19925;-87
2023/03/12 06:43:32;;;;;;;;;;;3.10;93.50;;;;;;4792671;29;19925;-87
2023/03/12 06:46:00;;;;;;;;;;;3.10;93.60;;;;;;4782969;29;19929;-87
2023/03/12 06:48:32;;;;;;;;;;;3.10;93.60;;;;;;4792452;29;20024;-88
2023/03/12 06:50:59;;;;;;;;;;;3.10;93.60;;;;;;4778366;29;19931;-87
2023/03/12 06:53:26;;;;;;;;;;;3.10;93.70;;;;;;4762864;29;19929;-87
2023/03/12 06:55:55;;;;;;;;;;;3.10;93.70;;;;;;4807678;29;19925;-87
2023/03/12 06:58:22;;;;;;;;;;;3.10;93.70;;;;;;4792114;29;19925;-87
2023/03/12 07:00:52;;;;;;;;;;;3.10;93.80;;;;;;4791838;29;20371;-87
2023/03/12 07:03:19;;;;;;;;;;;3.10;93.80;;;;;;4792628;29;19925;-88
2023/03/12 07:05:47;;;;;;;;;;;3.10;93.80;;;;;;4792110;29;19929;-87
2023/03/12 07:08:14;;;;;;;;;;;3.20;93.80;;;;;;4792344;29;19931;-87
2023/03/12 07:10:41;;;;;;;;;;;3.20;93.80;;;;;;4777147;29;20324;-87
2023/03/12 07:13:08;;;;;;;;;;;3.20;93.80;;;;;;4806914;29;19941;-87
2023/03/12 07:15:35;;;;;;;;;;;3.20;93.80;;;;;;4777077;29;19932;-87
2023/03/12 07:18:09;;;;;;;;;;;3.30;93.80;;;;;;4792131;29;20275;-87
2023/03/12 07:20:37;;;;;;;;;;;3.30;93.80;;;;;;4792025;29;19928;-87
2023/03/12 07:23:04;;;;;;;;;;;3.30;93.80;;;;;;4791754;29;19925;-87
2023/03/12 07:25:36;;;;;;;;;;;3.30;93.70;;;;;;4791789;29;20275;-87
2023/03/12 07:28:03;;;;;;;;;;;3.40;93.70;;;;;;4791684;29;20025;-87
2023/03/12 07:30:32;;;;;;;;;;;3.50;93.70;;;;;;4791765;29;20035;-87
2023/03/12 07:33:00;;;;;;;;;;;3.50;93.70;;;;;;4806520;29;19925;-87
2023/03/12 07:35:27;;;;;;;;;;;3.50;93.80;;;;;;4800123;29;19929;-87
2023/03/12 07:37:55;;;;;;;;;;;3.50;93.80;;;;;;4810411;29;19982;-88
2023/03/12 07:40:22;;;;;;;;;;;3.50;93.80;;;;;;4809793;29;19964;-88
2023/03/12 07:42:50;;;;;;;;;;;3.50;93.80;;;;;;4808256;29;19925;-88
2023/03/12 07:45:17;;;;;;;;;;;3.50;93.80;;;;;;4806812;29;19929;-88
2023/03/12 07:47:44;;;;;;;;;;;3.50;93.80;;;;;;4806677;29;19925;-88
2023/03/12 07:50:15;;;;;;;;;;;3.50;94.20;;;;;;4806097;29;19925;-87
2023/03/12 07:52:42;;;;;;;;;;;3.50;94.00;;;;;;4776690;29;20020;-88
2023/03/12 07:55:10;;;;;;;;;;;3.50;94.00;;;;;;4791465;29;20287;-87
2023/03/12 07:57:39;;;;;;;;;;;3.50;94.00;;;;;;4794159;29;19932;-88
2023/03/12 08:00:09;;;;;;;;;;;3.50;94.10;;;;;;4776804;29;19925;-88
2023/03/12 08:02:39;;;;;;;;;;;3.50;94.20;;;;;;4791199;29;19932;-87
2023/03/12 08:05:06;;;;;;;;;;;3.50;94.20;;;;;;4806075;29;19929;-88
2023/03/12 08:07:34;;;;;;;;;;;3.50;94.20;;;;;;4791385;29;20015;-87
2023/03/12 08:10:02;;;;;;;;;;;3.50;94.20;;;;;;4791512;29;19964;-87
2023/03/12 08:12:30;;;;;;;;;;;3.60;94.30;;;;;;4791298;29;19925;-87
2023/03/12 08:15:02;;;;;;;;;;;3.60;94.30;;;;;;4791333;29;20015;-87
2023/03/12 08:17:29;;;;;;;;;;;3.60;94.30;;;;;;4776347;29;19925;-87
2023/03/12 08:19:56;;;;;;;;;;;3.60;94.40;;;;;;4790918;29;19978;-87
2023/03/12 08:22:24;;;;;;;;;;;3.60;94.40;;;;;;4776048;29;19925;-88
2023/03/12 08:24:51;;;;;;;;;;;3.60;94.40;;;;;;4775975;29;19964;-87
2023/03/12 08:27:20;;;;;;;;;;;3.60;94.50;;;;;;4809768;29;19925;-88
2023/03/12 08:29:47;;;;;;;;;;;3.60;94.60;;;;;;4809372;29;19924;-88
2023/03/12 08:32:14;;;;;;;;;;;3.60;94.60;;;;;;4809268;29;19925;-88
2023/03/12 08:34:41;;;;;;;;;;;3.60;94.70;;;;;;4809529;29;19925;-88
2023/03/12 08:37:08;;;;;;;;;;;3.70;94.80;;;;;;4779261;29;19941;-87
2023/03/12 08:39:35;;;;;;;;;;;3.70;94.90;;;;;;4806613;29;19928;-88
2023/03/12 08:42:02;;;;;;;;;;;3.70;94.90;;;;;;4791031;29;19929;-87
2023/03/12 08:44:30;;;;;;;;;;;3.70;94.90;;;;;;4806207;29;19978;-88
2023/03/12 08:47:00;;;;;;;;;;;3.80;95.00;;;;;;4806175;29;20305;-87
2023/03/12 08:49:30;;;;;;;;;;;3.80;94.90;;;;;;4809233;29;20372;-88
2023/03/12 08:51:58;;;;;;;;;;;3.90;95.10;;;;;;4807126;29;20032;-88
2023/03/12 08:54:25;;;;;;;;;;;3.90;95.20;;;;;;4790908;29;19925;-88
2023/03/12 08:56:52;;;;;;;;;;;3.90;95.20;;;;;;4804186;29;20362;-88
2023/03/12 08:59:22;;;;;;;;;;;4.00;95.20;;;;;;4786637;29;19925;-88
2023/03/12 09:01:49;;;;;;;;;;;4.00;95.20;;;;;;4796399;29;20294;-87
2023/03/12 09:04:16;;;;;;;;;;;4.00;95.20;;;;;;4806814;29;19925;-88
2023/03/12 09:06:43;;;;;;;;;;;4.00;95.20;;;;;;4805548;29;19925;-88
2023/03/12 09:09:10;;;;;;;;;;;4.10;95.30;;;;;;4774776;29;19925;-89
2023/03/12 09:11:41;;;;;;;;;;;4.10;95.40;;;;;;4784524;29;19929;-87
2023/03/12 09:14:08;;;;;;;;;;;4.10;95.60;;;;;;4789650;29;20272;-88
2023/03/12 09:16:55;;;;;;;;;;;4.10;95.60;;;;;;4776064;29;19925;-88
2023/03/12 09:19:26;;;;;;;;;;;4.10;95.60;;;;;;4786360;29;19932;-89
2023/03/12 09:21:53;;;;;;;;;;;4.20;95.60;;;;;;4792541;29;19925;-89
2023/03/12 09:24:23;;;;;;;;;;;4.30;95.60;;;;;;4792567;29;20338;-88
2023/03/12 09:26:50;;;;;;;;;;;4.30;95.60;;;;;;4794651;29;20020;-89
2023/03/12 09:29:20;;;;;;;;;;;4.40;95.70;;;;;;4794188;29;19925;-88
2023/03/12 09:31:48;;;;;;;;;;;4.40;95.80;;;;;;4793875;29;19925;-88
2023/03/12 09:34:15;;;;;;;;;;;4.40;95.90;;;;;;4779013;29;19978;-88
2023/03/12 09:36:47;;;;;;;;;;;4.50;95.80;;;;;;4793698;29;19928;-88
2023/03/12 09:39:14;;;;;;;;;;;4.50;95.80;;;;;;4787344;29;19964;-88
2023/03/12 09:41:46;;;;;;;;;;;4.60;96.00;;;;;;4775777;29;19929;-87
2023/03/12 09:44:21;;;;;;;;;;;4.60;95.90;;;;;;4778254;29;19925;-88
2023/03/12 09:47:18;;;;;;;;;;;4.70;95.90;;;;;;4803143;29;19925;-86
2023/03/12 09:49:53;;;;;;;;;;;4.70;95.90;;;;;;4783417;29;19982;-87
2023/03/12 09:52:32;;;;;;;;;;;4.80;95.90;;;;;;4781510;29;19933;-88
2023/03/12 09:55:05;;;;;;;;;;;4.90;95.90;;;;;;4793551;29;19932;-90
2023/03/12 09:57:33;;;;;;;;;;;5.00;95.90;;;;;;4778288;29;19925;-86
2023/03/12 10:00:00;;;;;;;;;;;5.10;95.80;;;;;;4778386;29;20020;-91
2023/03/12 10:02:58;;;;;;;;;;;5.10;95.90;;;;;;4795206;29;20301;-91
2023/03/12 10:05:43;;;;;;;;;;;5.20;95.90;;;;;;4788903;29;20019;-91
2023/03/12 10:08:19;;;;;;;;;;;5.30;96.20;;;;;;4778306;29;19931;-88
2023/03/12 10:11:15;;;;;;;;;;;5.30;96.30;;;;;;4794587;29;19929;-91
2023/03/12 10:13:45;;;;;;;;;;;5.30;96.40;;;;;;4793233;29;19994;-87
2023/03/12 10:16:29;;;;;;;;;;;5.40;96.50;;;;;;4792906;29;19929;-86
2023/03/12 10:19:14;;;;;;;;;;;5.40;96.60;;;;;;4789762;29;19932;-89
2023/03/12 10:21:58;;;;;;;;;;;5.50;96.80;;;;;;4802635;29;19932;-89
2023/03/12 10:24:54;;;;;;;;;;;5.60;96.70;;;;;;4798966;29;19956;-89
2023/03/12 10:27:22;;;;;;;;;;;5.60;96.80;;;;;;4781822;29;19925;-89
2023/03/12 10:29:51;;;;;;;;;;;5.70;97.00;;;;;;4793350;29;19951;-88
2023/03/12 10:32:23;;;;;;;;;;;5.80;96.90;;;;;;4793856;29;19932;-88
2023/03/12 10:35:03;;;;;;;;;;;5.80;96.90;;;;;;4792007;29;19925;-87
2023/03/12 10:37:41;;;;;;;;;;;5.90;97.00;;;;;;4802986;29;19929;-87
2023/03/12 10:40:15;;;;;;;;;;;5.90;97.00;;;;;;4801869;29;19952;-86
2023/03/12 10:42:42;;;;;;;;;;;6.00;97.10;;;;;;4800892;29;19925;-86
2023/03/12 10:45:16;;;;;;;;;;;6.10;97.10;;;;;;4792473;29;20016;-87
2023/03/12 10:47:48;;;;;;;;;;;6.20;97.30;;;;;;4803385;29;19969;-88
2023/03/12 10:50:15;;;;;;;;;;;6.20;97.30;;;;;;4814536;29;19926;-88
2023/03/12 10:52:44;;;;;;;;;;;6.30;97.40;;;;;;4791455;29;19925;-87
2023/03/12 10:55:29;;;;;;;;;;;6.40;97.40;;;;;;4804436;29;19925;-89
2023/03/12 10:57:56;;;;;;;;;;;6.50;97.80;;;;;;4802768;29;20012;-89
2023/03/12 11:00:28;;;;;;;;;;;6.60;97.80;;;;;;4791423;29;19925;-88
2023/03/12 11:03:03;;;;;;;;;;;6.60;97.80;;;;;;4792282;29;19931;-88
2023/03/12 11:05:33;;;;;;;;;;;6.70;97.80;;;;;;4780594;29;20282;-88
2023/03/12 11:08:03;;;;;;;;;;;6.80;97.80;;;;;;4791829;29;19925;-87
2023/03/12 11:10:44;;;;;;;;;;;6.80;97.70;;;;;;4792040;29;19964;-87
2023/03/12 11:13:38;;;;;;;;;;;6.90;97.70;;;;;;4806939;29;20017;-88
2023/03/12 11:16:08;;;;;;;;;;;6.90;97.80;;;;;;4790871;29;20024;-86
2023/03/12 11:18:36;;;;;;;;;;;6.90;97.90;;;;;;4806833;29;19928;-87
2023/03/12 11:21:07;;;;;;;;;;;7.00;97.90;;;;;;4760051;29;19925;-89
2023/03/12 11:23:36;;;;;;;;;;;7.10;97.90;;;;;;4806372;29;19925;-89
2023/03/12 11:26:24;;;;;;;;;;;7.10;97.90;;;;;;4792227;29;19971;-87
2023/03/12 11:29:11;;;;;;;;;;;7.20;98.00;;;;;;4803644;29;19925;-86
2023/03/12 11:31:42;;;;;;;;;;;7.40;98.10;;;;;;4793348;29;19963;-85
2023/03/12 11:34:35;;;;;;;;;;;7.50;98.10;;;;;;4805150;29;20378;-84
2023/03/12 11:37:14;;;;;;;;;;;7.60;98.30;;;;;;4804887;29;19925;-85
2023/03/12 11:39:57;;;;;;;;;;;7.70;98.50;;;;;;4793565;29;20415;-86
2023/03/12 11:42:24;;;;;;;;;;;7.80;98.40;;;;;;4805493;29;19925;-87
2023/03/12 11:45:13;;;;;;;;;;;7.90;98.70;;;;;;4805685;29;20012;-87
2023/03/12 11:47:47;;;;;;;;;;;8.00;98.80;;;;;;4796469;29;19925;-87
2023/03/12 11:50:14;;;;;;;;;;;8.10;98.80;;;;;;4806338;29;19925;-85
2023/03/12 11:52:52;;;;;;;;;;;8.20;98.90;;;;;;4805858;29;19925;-85
2023/03/12 11:55:30;;;;;;;;;;;8.30;99.00;;;;;;4785964;29;19925;-85
2023/03/12 11:58:17;;;;;;;;;;;8.30;99.00;;;;;;4799061;29;19929;-86
2023/03/12 12:00:54;;;;;;;;;;;8.40;99.00;;;;;;4797572;29;19982;-89
2023/03/12 12:03:22;;;;;;;;;;;8.50;99.00;;;;;;4797186;29;20012;-92
2023/03/12 12:05:57;;;;;;;;;;;8.50;99.10;;;;;;4803744;29;19994;-93
2023/03/12 12:08:43;;;;;;;;;;;8.60;99.20;;;;;;4771610;29;19948;-89
2023/03/12 12:11:10;;;;;;;;;;;8.60;99.20;;;;;;4797730;29;19944;-89
2023/03/12 12:13:36;;;;;;;;;;;8.70;99.30;;;;;;4798392;29;20011;-91
2023/03/12 12:19:05;;;;;;;;;;;8.80;99.40;;;;;;4813136;24;19932;-92
2023/03/12 12:22:06;;;;;;;;;;;8.90;99.30;;;;;;4789486;29;19932;-88
2023/03/12 12:24:37;;;;;;;;;;;9.00;99.20;;;;;;4786484;29;19964;-88
2023/03/12 12:27:24;;;;;;;;;;;9.00;99.30;;;;;;4806151;29;19936;-91
2023/03/12 12:29:59;;;;;;;;;;;9.00;99.40;;;;;;4791460;29;19929;-90
2023/03/12 12:32:32;;;;;;;;;;;9.20;99.60;;;;;;4791771;29;19990;-90
2023/03/12 12:35:18;;;;;;;;;;;9.30;99.50;;;;;;4790911;29;19929;-94
2023/03/12 12:37:49;;;;;;;;;;;9.30;99.60;;;;;;4765336;30;20427;-93
2023/03/12 12:40:31;;;;;;;;;;;9.30;99.60;;;;;;4772848;30;19974;-87
2023/03/12 12:43:03;;;;;;;;;;;9.40;99.70;;;;;;4785824;29;19926;-92
2023/03/12 12:45:30;;;;;;;;;;;9.30;99.80;;;;;;4772606;30;20024;-88
2023/03/12 12:47:56;;;;;;;;;;;9.30;99.90;;;;;;4772738;30;20396;-88
2023/03/12 12:50:26;;;;;;;;;;;9.30;99.90;;;;;;4772900;29;20302;-88
2023/03/12 12:53:00;;;;;;;;;;;9.30;99.90;;;;;;4770013;30;20371;-92
2023/03/12 12:55:30;;;;;;;;;;;9.30;99.90;;;;;;4784993;30;20442;-86
2023/03/12 12:58:04;;;;;;;;;;;9.30;99.90;;;;;;4772913;30;19926;-93
2023/03/12 13:00:33;;;;;;;;;;;9.30;99.90;;;;;;4785075;29;19926;-87
2023/03/12 13:03:03;;;;;;;;;;;9.40;99.90;;;;;;4776365;30;19972;-94
2023/03/12 13:05:36;;;;;;;;;;;9.40;99.90;;;;;;4777543;29;20268;-88
2023/03/12 13:08:07;;;;;;;;;;;9.50;99.90;;;;;;4786285;29;19926;-92
2023/03/12 13:10:51;;;;;;;;;;;9.50;99.90;;;;;;4775705;29;19925;-94
2023/03/12 13:13:24;;;;;;;;;;;9.50;99.90;;;;;;4779951;29;19925;-88
2023/03/12 13:16:13;;;;;;;;;;;9.50;99.90;;;;;;4776102;30;19925;-91
2023/03/12 13:19:05;;;;;;;;;;;9.40;99.90;;;;;;4776863;29;19933;-92
2023/03/12 13:21:32;;;;;;;;;;;9.50;99.90;;;;;;4776762;30;19926;-90
2023/03/12 13:24:08;;;;;;;;;;;9.60;99.90;;;;;;4776405;30;19995;-90
2023/03/12 13:26:55;;;;;;;;;;;9.60;99.90;;;;;;4776056;30;19932;-89
2023/03/12 13:29:28;;;;;;;;;;;9.60;99.90;;;;;;4783707;29;20359;-89
2023/03/12 13:31:56;;;;;;;;;;;9.70;99.90;;;;;;4780840;30;19925;-88
2023/03/12 13:34:23;;;;;;;;;;;9.80;99.90;;;;;;4772353;30;19992;-86
2023/03/12 13:37:01;;;;;;;;;;;9.90;99.90;;;;;;4800505;29;19932;-85
2023/03/12 13:39:27;;;;;;;;;;;10.00;99.90;;;;;;4796597;29;20378;-84
2023/03/12 13:41:55;;;;;;;;;;;10.10;99.90;;;;;;4787058;29;19978;-84
2023/03/12 13:44:25;;;;;;;;;;;10.20;99.90;;;;;;4774962;30;19974;-84
2023/03/12 13:47:01;;;;;;;;;;;10.20;99.90;;;;;;4768386;29;20032;-85
2023/03/12 13:49:34;;;;;;;;;;;10.20;99.90;;;;;;4773788;29;19929;-84
2023/03/12 13:52:08;;;;;;;;;;;10.30;99.90;;;;;;4777285;29;19929;-84
2023/03/12 13:54:40;;;;;;;;;;;10.30;99.80;;;;;;4797500;29;19979;-84
2023/03/12 13:57:24;;;;;;;;;;;10.30;99.70;;;;;;4802195;29;20442;-85
2023/03/12 13:59:51;;;;;;;;;;;10.30;99.40;;;;;;4805418;29;19929;-87
2023/03/12 14:02:24;;;;;;;;;;;10.30;99.20;;;;;;4760647;30;20379;-87
2023/03/12 14:04:51;;;;;;;;;;;10.40;99.20;;;;;;4761200;30;19972;-88
2023/03/12 14:07:24;;;;;;;;;;;10.50;99.10;;;;;;4775775;29;19925;-89
2023/03/12 14:10:01;;;;;;;;;;;10.60;98.90;;;;;;4786382;29;19978;-88
2023/03/12 14:12:28;;;;;;;;;;;10.70;98.70;;;;;;4774780;30;19982;-88
2023/03/12 14:15:03;;;;;;;;;;;10.90;98.40;;;;;;4775159;29;19926;-88
2023/03/12 14:17:31;;;;;;;;;;;11.10;98.10;;;;;;4777955;30;19941;-89
2023/03/12 14:20:05;;;;;;;;;;;11.10;97.30;;;;;;4773029;30;19986;-90
2023/03/12 14:22:34;;;;;;;;;;;11.10;96.60;;;;;;4775391;30;20314;-89
2023/03/12 14:25:22;;;;;;;;;;;11.10;96.60;;;;;;4789993;29;20024;-88
2023/03/12 14:27:49;;;;;;;;;;;11.10;96.60;;;;;;4774994;30;20382;-88
2023/03/12 14:30:15;;;;;;;;;;;11.20;96.70;;;;;;4776792;29;19925;-89
2023/03/12 14:32:43;;;;;;;;;;;11.20;96.60;;;;;;4793060;29;19975;-90
2023/03/12 14:35:13;;;;;;;;;;;11.30;96.20;;;;;;4766630;29;20205;-89
2023/03/12 14:37:42;;;;;;;;;;;11.30;96.10;;;;;;4808111;29;19932;-88
2023/03/12 14:40:18;;;;;;;;;;;11.30;95.80;;;;;;4805585;29;19925;-87
2023/03/12 14:42:48;;;;;;;;;;;11.30;95.20;;;;;;4792764;29;19925;-88
2023/03/12 14:45:17;;;;;;;;;;;11.30;95.20;;;;;;4788191;29;21500;-89
2023/03/12 14:47:50;;;;;;;;;;;11.30;94.90;;;;;;4792969;29;19925;-88
2023/03/12 14:50:23;;;;;;;;;;;11.20;94.50;;;;;;4792596;29;20259;-87